sensor_id;sensor_type;location;lat;lon;timestamp;temperature;humidity
16136;DHT22;8173;48.354;9.248;2023-03-11T00:01:15;0.00;99.90
16136;DHT22;8173;48.354;9.248;2023-03-11T00:03:41;0.00;99.90
16136;DHT22;8173;48.354;9.248;2023-03-11T00:06:08;0.00;99.90
16136;DHT22;8173;48.354;9.248;2023-03-11T00:08:35;0.00;99.90
16136;DHT22;8173;48.354;9.248;2023-03-11T00:11:03;-0.10;99.90
16136;DHT22;8173;48.354;9.248;2023-03-11T00:13:30;-0.20;99.90
16136;DHT22;8173;48.354;9.248;2023-03-11T00:15:59;-0.20;99.90
16136;DHT22;8173;48.354;9.248;2023-03-11T00:18:28;-0.30;99.90
16136;DHT22;8173;48.354;9.248;2023-03-11T00:20:56;-0.30;99.90
16136;DHT22;8173;48.354;9.248;2023-03-11T00:23:25;-0.40;99.90
16136;DHT22;8173;48.354;9.248;2023-03-11T00:25:52;-0.40;99.90
16136;DHT22;8173;48.354;9.248;2023-03-11T00:28:20;-0.50;99.90
16136;DHT22;8173;48.354;9.248;2023-03-11T00:30:49;-0.50;99.90
16136;DHT22;8173;48.354;9.248;2023-03-11T00:33:16;-0.50;99.90
16136;DHT22;8173;48.354;9.248;2023-03-11T00:35:43;-0.50;99.90
16136;DHT22;8173;48.354;9.248;2023-03-11T00:38:12;-0.60;99.90
16136;DHT22;8173;48.354;9.248;2023-03-11T00:40:40;-0.60;99.90
16136;DHT22;8173;48.354;9.248;2023-03-11T00:43:06;-0.60;99.90
16136;DHT22;8173;48.354;9.248;2023-03-11T00:45:35;-0.60;99.90
16136;DHT22;8173;48.354;9.248;2023-03-11T00:48:01;-0.70;99.90
16136;DHT22;8173;48.354;9.248;2023-03-11T00:50:30;-0.70;99.90
16136;DHT22;8173;48.354;9.248;2023-03-11T00:52:57;-0.70;99.90
16136;DHT22;8173;48.354;9.248;2023-03-11T00:55:26;-0.70;99.90
16136;DHT22;8173;48.354;9.248;2023-03-11T00:57:55;-0.70;99.90
16136;DHT22;8173;48.354;9.248;2023-03-11T01:00:23;-0.70;99.90
16136;DHT22;8173;48.354;9.248;2023-03-11T01:02:53;-0.70;99.90
16136;DHT22;8173;48.354;9.248;2023-03-11T01:05:22;-0.70;99.90
16136;DHT22;8173;48.354;9.248;2023-03-11T01:07:49;-0.80;99.90
16136;DHT22;8173;48.354;9.248;2023-03-11T01:12:43;-0.80;99.90
16136;DHT22;8173;48.354;9.248;2023-03-11T01:15:16;-0.90;99.90
16136;DHT22;8173;48.354;9.248;2023-03-11T01:17:44;-0.80;99.90
16136;DHT22;8173;48.354;9.248;2023-03-11T01:20:13;-0.80;99.90
16136;DHT22;8173;48.354;9.248;2023-03-11T01:22:40;-0.80;99.90
16136;DHT22;8173;48.354;9.248;2023-03-11T01:25:07;-0.80;99.90
16136;DHT22;8173;48.354;9.248;2023-03-11T01:27:34;-0.80;99.90
16136;DHT22;8173;48.354;9.248;2023-03-11T01:30:01;-0.90;99.90
16136;DHT22;8173;48.354;9.248;2023-03-11T01:32:28;-0.90;99.90
16136;DHT22;8173;48.354;9.248;2023-03-11T01:34:55;-0.90;99.90
16136;DHT22;8173;48.354;9.248;2023-03-11T01:37:23;-0.90;99.90
16136;DHT22;8173;48.354;9.248;2023-03-11T01:39:50;-0.90;99.90
16136;DHT22;8173;48.354;9.248;2023-03-11T01:42:16;-0.90;99.90
16136;DHT22;8173;48.354;9.248;2023-03-11T01:44:43;-0.90;99.90
16136;DHT22;8173;48.354;9.248;2023-03-11T01:47:38;-0.90;99.90
16136;DHT22;8173;48.354;9.248;2023-03-11T01:50:10;-0.80;99.90
16136;DHT22;8173;48.354;9.248;2023-03-11T01:52:39;-0.80;99.90
16136;DHT22;8173;48.354;9.248;2023-03-11T01:55:07;-0.80;99.90
16136;DHT22;8173;48.354;9.248;2023-03-11T01:57:35;-0.80;99.90
16136;DHT22;8173;48.354;9.248;2023-03-11T02:00:07;-0.80;99.90
16136;DHT22;8173;48.354;9.248;2023-03-11T02:02:36;-0.90;99.90
16136;DHT22;8173;48.354;9.248;2023-03-11T02:05:06;-0.80;99.90
16136;DHT22;8173;48.354;9.248;2023-03-11T02:07:33;-0.80;99.90
16136;DHT22;8173;48.354;9.248;2023-03-11T02:10:01;-0.80;99.90
16136;DHT22;8173;48.354;9.248;2023-03-11T02:12:30;-0.80;99.90
16136;DHT22;8173;48.354;9.248;2023-03-11T02:14:59;-0.80;99.90
16136;DHT22;8173;48.354;9.248;2023-03-11T02:17:27;-0.70;99.90
16136;DHT22;8173;48.354;9.248;2023-03-11T02:20:03;-0.70;99.90
16136;DHT22;8173;48.354;9.248;2023-03-11T02:25:04;-0.70;99.90
16136;DHT22;8173;48.354;9.248;2023-03-11T02:27:38;-0.70;99.90
16136;DHT22;8173;48.354;9.248;2023-03-11T02:30:08;-0.70;99.90
16136;DHT22;8173;48.354;9.248;2023-03-11T02:32:36;-0.70;99.90
16136;DHT22;8173;48.354;9.248;2023-03-11T02:35:04;-0.70;99.90
16136;DHT22;8173;48.354;9.248;2023-03-11T02:37:31;-0.80;99.90
16136;DHT22;8173;48.354;9.248;2023-03-11T02:40:32;-0.80;99.90
16136;DHT22;8173;48.354;9.248;2023-03-11T02:43:05;-0.80;99.90
16136;DHT22;8173;48.354;9.248;2023-03-11T02:45:40;-0.80;99.90
16136;DHT22;8173;48.354;9.248;2023-03-11T02:48:09;-0.80;99.90
16136;DHT22;8173;48.354;9.248;2023-03-11T02:50:37;-0.80;99.90
16136;DHT22;8173;48.354;9.248;2023-03-11T02:53:04;-0.80;99.90
16136;DHT22;8173;48.354;9.248;2023-03-11T02:55:31;-0.80;99.90
16136;DHT22;8173;48.354;9.248;2023-03-11T02:57:57;-0.80;99.90
16136;DHT22;8173;48.354;9.248;2023-03-11T03:00:26;-0.80;99.90
16136;DHT22;8173;48.354;9.248;2023-03-11T03:02:53;-0.80;99.90
16136;DHT22;8173;48.354;9.248;2023-03-11T03:05:20;-0.80;99.90
16136;DHT22;8173;48.354;9.248;2023-03-11T03:07:48;-0.80;99.90
16136;DHT22;8173;48.354;9.248;2023-03-11T03:10:16;-0.70;99.90
16136;DHT22;8173;48.354;9.248;2023-03-11T03:12:43;-0.80;99.90
16136;DHT22;8173;48.354;9.248;2023-03-11T03:15:11;-0.80;99.90
16136;DHT22;8173;48.354;9.248;2023-03-11T03:17:42;-0.90;99.90
16136;DHT22;8173;48.354;9.248;2023-03-11T03:20:10;-0.90;99.90
16136;DHT22;8173;48.354;9.248;2023-03-11T03:22:38;-0.90;99.90
16136;DHT22;8173;48.354;9.248;2023-03-11T03:25:06;-0.90;99.90
16136;DHT22;8173;48.354;9.248;2023-03-11T03:27:33;-1.00;99.90
16136;DHT22;8173;48.354;9.248;2023-03-11T03:30:00;-1.00;99.90
16136;DHT22;8173;48.354;9.248;2023-03-11T03:32:27;-1.00;99.90
16136;DHT22;8173;48.354;9.248;2023-03-11T03:34:55;-1.00;99.90
16136;DHT22;8173;48.354;9.248;2023-03-11T03:37:24;-1.10;99.90
16136;DHT22;8173;48.354;9.248;2023-03-11T03:39:51;-1.10;99.90
16136;DHT22;8173;48.354;9.248;2023-03-11T03:42:18;-1.10;99.90
16136;DHT22;8173;48.354;9.248;2023-03-11T03:44:45;-1.10;99.90
16136;DHT22;8173;48.354;9.248;2023-03-11T03:47:12;-1.20;99.90
16136;DHT22;8173;48.354;9.248;2023-03-11T03:49:38;-1.10;99.90
16136;DHT22;8173;48.354;9.248;2023-03-11T03:52:07;-1.20;99.90
16136;DHT22;8173;48.354;9.248;2023-03-11T03:54:34;-1.20;99.90
16136;DHT22;8173;48.354;9.248;2023-03-11T03:57:01;-1.10;99.90
16136;DHT22;8173;48.354;9.248;2023-03-11T03:59:28;-1.20;99.90
16136;DHT22;8173;48.354;9.248;2023-03-11T04:01:55;-1.20;99.90
16136;DHT22;8173;48.354;9.248;2023-03-11T04:04:22;-1.30;99.90
16136;DHT22;8173;48.354;9.248;2023-03-11T04:06:49;-1.30;99.90
16136;DHT22;8173;48.354;9.248;2023-03-11T04:09:17;-1.30;99.90
16136;DHT22;8173;48.354;9.248;2023-03-11T04:11:44;-1.40;99.90
16136;DHT22;8173;48.354;9.248;2023-03-11T04:16:38;-1.40;99.90
16136;DHT22;8173;48.354;9.248;2023-03-11T04:19:05;-1.40;99.90
16136;DHT22;8173;48.354;9.248;2023-03-11T04:21:32;-1.40;99.90
16136;DHT22;8173;48.354;9.248;2023-03-11T04:23:59;-1.50;99.90
16136;DHT22;8173;48.354;9.248;2023-03-11T04:26:27;-1.50;99.90
16136;DHT22;8173;48.354;9.248;2023-03-11T04:28:54;-1.50;99.90
16136;DHT22;8173;48.354;9.248;2023-03-11T04:31:20;-1.50;99.90
16136;DHT22;8173;48.354;9.248;2023-03-11T04:33:47;-1.50;99.90
16136;DHT22;8173;48.354;9.248;2023-03-11T04:36:14;-1.50;99.90
16136;DHT22;8173;48.354;9.248;2023-03-11T04:38:41;-1.50;99.90
16136;DHT22;8173;48.354;9.248;2023-03-11T04:41:07;-1.50;99.90
16136;DHT22;8173;48.354;9.248;2023-03-11T04:43:36;-1.50;99.90
16136;DHT22;8173;48.354;9.248;2023-03-11T04:46:03;-1.40;99.90
16136;DHT22;8173;48.354;9.248;2023-03-11T04:48:30;-1.50;99.90
16136;DHT22;8173;48.354;9.248;2023-03-11T04:50:56;-1.50;99.90
16136;DHT22;8173;48.354;9.248;2023-03-11T04:53:23;-1.40;99.90
16136;DHT22;8173;48.354;9.248;2023-03-11T04:55:50;-1.40;99.90
16136;DHT22;8173;48.354;9.248;2023-03-11T04:58:18;-1.40;99.90
16136;DHT22;8173;48.354;9.248;2023-03-11T05:00:46;-1.40;99.90
16136;DHT22;8173;48.354;9.248;2023-03-11T05:03:13;-1.50;99.90
16136;DHT22;8173;48.354;9.248;2023-03-11T05:05:40;-1.60;99.90
16136;DHT22;8173;48.354;9.248;2023-03-11T05:08:07;-1.70;99.90
16136;DHT22;8173;48.354;9.248;2023-03-11T05:13:01;-1.80;99.90
16136;DHT22;8173;48.354;9.248;2023-03-11T05:15:28;-1.80;99.90
16136;DHT22;8173;48.354;9.248;2023-03-11T05:17:57;-1.80;99.90
16136;DHT22;8173;48.354;9.248;2023-03-11T05:20:24;-1.80;99.90
16136;DHT22;8173;48.354;9.248;2023-03-11T05:22:51;-1.80;99.90
16136;DHT22;8173;48.354;9.248;2023-03-11T05:25:17;-1.80;99.90
16136;DHT22;8173;48.354;9.248;2023-03-11T05:27:44;-1.80;99.90
16136;DHT22;8173;48.354;9.248;2023-03-11T05:30:11;-1.70;99.90
16136;DHT22;8173;48.354;9.248;2023-03-11T05:32:38;-1.70;99.90
16136;DHT22;8173;48.354;9.248;2023-03-11T05:35:07;-1.80;99.90
16136;DHT22;8173;48.354;9.248;2023-03-11T05:37:34;-1.80;99.90
16136;DHT22;8173;48.354;9.248;2023-03-11T05:40:04;-2.00;99.90
16136;DHT22;8173;48.354;9.248;2023-03-11T05:42:32;-1.90;99.90
16136;DHT22;8173;48.354;9.248;2023-03-11T05:44:59;-2.00;99.90
16136;DHT22;8173;48.354;9.248;2023-03-11T05:47:25;-2.00;99.90
16136;DHT22;8173;48.354;9.248;2023-03-11T05:49:52;-2.10;99.90
16136;DHT22;8173;48.354;9.248;2023-03-11T05:52:20;-2.10;99.90
16136;DHT22;8173;48.354;9.248;2023-03-11T05:54:48;-2.10;99.90
16136;DHT22;8173;48.354;9.248;2023-03-11T05:57:15;-2.10;99.90
16136;DHT22;8173;48.354;9.248;2023-03-11T05:59:42;-2.10;99.90
16136;DHT22;8173;48.354;9.248;2023-03-11T06:02:09;-2.10;99.90
16136;DHT22;8173;48.354;9.248;2023-03-11T06:04:36;-2.10;99.90
16136;DHT22;8173;48.354;9.248;2023-03-11T06:07:03;-2.10;99.90
16136;DHT22;8173;48.354;9.248;2023-03-11T06:09:31;-2.00;99.90
16136;DHT22;8173;48.354;9.248;2023-03-11T06:12:01;-2.00;99.90
16136;DHT22;8173;48.354;9.248;2023-03-11T06:14:28;-2.00;99.90
16136;DHT22;8173;48.354;9.248;2023-03-11T06:16:56;-1.90;99.90
16136;DHT22;8173;48.354;9.248;2023-03-11T06:19:23;-1.90;99.90
16136;DHT22;8173;48.354;9.248;2023-03-11T06:21:50;-1.80;99.90
16136;DHT22;8173;48.354;9.248;2023-03-11T06:24:17;-1.80;99.90
16136;DHT22;8173;48.354;9.248;2023-03-11T06:26:50;-1.90;99.90
16136;DHT22;8173;48.354;9.248;2023-03-11T06:29:16;-1.90;99.90
16136;DHT22;8173;48.354;9.248;2023-03-11T06:31:43;-1.90;99.90
16136;DHT22;8173;48.354;9.248;2023-03-11T06:34:11;-1.90;99.90
16136;DHT22;8173;48.354;9.248;2023-03-11T06:36:37;-1.90;99.90
16136;DHT22;8173;48.354;9.248;2023-03-11T06:39:04;-1.90;99.90
16136;DHT22;8173;48.354;9.248;2023-03-11T06:41:32;-1.80;99.90
16136;DHT22;8173;48.354;9.248;2023-03-11T06:44:01;-1.80;99.90
16136;DHT22;8173;48.354;9.248;2023-03-11T06:46:28;-1.70;99.90
16136;DHT22;8173;48.354;9.248;2023-03-11T06:48:55;-1.60;99.90
16136;DHT22;8173;48.354;9.248;2023-03-11T06:51:22;-1.50;99.90
16136;DHT22;8173;48.354;9.248;2023-03-11T06:53:50;-1.40;99.90
16136;DHT22;8173;48.354;9.248;2023-03-11T06:56:18;-1.20;99.90
16136;DHT22;8173;48.354;9.248;2023-03-11T06:58:46;-0.70;99.90
16136;DHT22;8173;48.354;9.248;2023-03-11T07:01:15;0.10;99.90
16136;DHT22;8173;48.354;9.248;2023-03-11T07:03:44;0.10;99.90
16136;DHT22;8173;48.354;9.248;2023-03-11T07:06:11;0.40;99.90
16136;DHT22;8173;48.354;9.248;2023-03-11T07:08:39;0.80;99.90
16136;DHT22;8173;48.354;9.248;2023-03-11T07:11:07;1.30;99.90
16136;DHT22;8173;48.354;9.248;2023-03-11T07:13:35;1.30;99.90
16136;DHT22;8173;48.354;9.248;2023-03-11T07:16:04;0.90;99.90
16136;DHT22;8173;48.354;9.248;2023-03-11T07:18:33;0.40;99.90
16136;DHT22;8173;48.354;9.248;2023-03-11T07:21:01;0.00;99.90
16136;DHT22;8173;48.354;9.248;2023-03-11T07:23:28;-0.30;99.90
16136;DHT22;8173;48.354;9.248;2023-03-11T07:25:54;-0.20;99.90
16136;DHT22;8173;48.354;9.248;2023-03-11T07:28:21;-0.10;99.90
16136;DHT22;8173;48.354;9.248;2023-03-11T07:30:48;0.20;99.90
16136;DHT22;8173;48.354;9.248;2023-03-11T07:33:15;0.40;99.90
16136;DHT22;8173;48.354;9.248;2023-03-11T07:35:43;0.30;99.90
16136;DHT22;8173;48.354;9.248;2023-03-11T07:38:11;0.40;99.90
16136;DHT22;8173;48.354;9.248;2023-03-11T07:40:37;0.70;99.90
16136;DHT22;8173;48.354;9.248;2023-03-11T07:43:04;1.00;99.90
16136;DHT22;8173;48.354;9.248;2023-03-11T07:45:31;2.00;99.90
16136;DHT22;8173;48.354;9.248;2023-03-11T07:47:57;2.80;99.90
16136;DHT22;8173;48.354;9.248;2023-03-11T07:50:24;3.10;99.90
16136;DHT22;8173;48.354;9.248;2023-03-11T07:52:52;3.60;99.90
16136;DHT22;8173;48.354;9.248;2023-03-11T07:55:19;4.50;99.90
16136;DHT22;8173;48.354;9.248;2023-03-11T07:57:46;5.20;99.90
16136;DHT22;8173;48.354;9.248;2023-03-11T08:00:15;4.70;99.90
16136;DHT22;8173;48.354;9.248;2023-03-11T08:02:41;3.50;99.90
16136;DHT22;8173;48.354;9.248;2023-03-11T08:05:09;2.60;99.90
16136;DHT22;8173;48.354;9.248;2023-03-11T08:07:36;1.40;99.90
16136;DHT22;8173;48.354;9.248;2023-03-11T08:10:05;0.60;99.90
16136;DHT22;8173;48.354;9.248;2023-03-11T08:12:32;0.50;99.90
16136;DHT22;8173;48.354;9.248;2023-03-11T08:14:59;0.30;99.90
16136;DHT22;8173;48.354;9.248;2023-03-11T08:17:25;1.50;99.90
16136;DHT22;8173;48.354;9.248;2023-03-11T08:19:52;3.50;99.90
16136;DHT22;8173;48.354;9.248;2023-03-11T08:22:19;5.20;99.90
16136;DHT22;8173;48.354;9.248;2023-03-11T08:24:49;4.80;99.90
16136;DHT22;8173;48.354;9.248;2023-03-11T08:27:18;3.80;99.90
16136;DHT22;8173;48.354;9.248;2023-03-11T08:29:45;3.80;99.90
16136;DHT22;8173;48.354;9.248;2023-03-11T08:32:11;3.20;99.90
16136;DHT22;8173;48.354;9.248;2023-03-11T08:34:38;2.90;99.90
16136;DHT22;8173;48.354;9.248;2023-03-11T08:37:05;2.40;99.90
16136;DHT22;8173;48.354;9.248;2023-03-11T08:39:31;1.80;99.90
16136;DHT22;8173;48.354;9.248;2023-03-11T08:41:58;1.50;99.90
16136;DHT22;8173;48.354;9.248;2023-03-11T08:44:26;1.50;99.90
16136;DHT22;8173;48.354;9.248;2023-03-11T08:46:53;1.10;99.90
16136;DHT22;8173;48.354;9.248;2023-03-11T08:49:20;0.90;99.90
16136;DHT22;8173;48.354;9.248;2023-03-11T08:51:47;1.10;99.90
16136;DHT22;8173;48.354;9.248;2023-03-11T08:54:14;2.70;99.90
16136;DHT22;8173;48.354;9.248;2023-03-11T08:56:41;4.60;99.90
16136;DHT22;8173;48.354;9.248;2023-03-11T08:59:07;4.60;99.90
16136;DHT22;8173;48.354;9.248;2023-03-11T09:01:35;2.90;99.90
16136;DHT22;8173;48.354;9.248;2023-03-11T09:04:02;2.20;99.90
16136;DHT22;8173;48.354;9.248;2023-03-11T09:06:29;1.80;99.90
16136;DHT22;8173;48.354;9.248;2023-03-11T09:08:56;1.70;99.90
16136;DHT22;8173;48.354;9.248;2023-03-11T09:11:23;1.40;99.90
16136;DHT22;8173;48.354;9.248;2023-03-11T09:13:50;1.10;99.90
16136;DHT22;8173;48.354;9.248;2023-03-11T09:16:19;2.10;99.90
16136;DHT22;8173;48.354;9.248;2023-03-11T09:18:48;1.90;99.90
16136;DHT22;8173;48.354;9.248;2023-03-11T09:21:15;1.90;99.90
16136;DHT22;8173;48.354;9.248;2023-03-11T09:23:42;1.20;99.90
16136;DHT22;8173;48.354;9.248;2023-03-11T09:26:08;0.60;99.90
16136;DHT22;8173;48.354;9.248;2023-03-11T09:28:35;0.40;99.90
16136;DHT22;8173;48.354;9.248;2023-03-11T09:31:02;0.50;99.90
16136;DHT22;8173;48.354;9.248;2023-03-11T09:33:29;1.50;99.90
16136;DHT22;8173;48.354;9.248;2023-03-11T09:35:57;2.90;99.90
16136;DHT22;8173;48.354;9.248;2023-03-11T09:38:24;4.00;99.90
16136;DHT22;8173;48.354;9.248;2023-03-11T09:40:57;4.70;99.90
16136;DHT22;8173;48.354;9.248;2023-03-11T09:43:34;5.90;99.90
16136;DHT22;8173;48.354;9.248;2023-03-11T09:46:17;7.00;99.90
16136;DHT22;8173;48.354;9.248;2023-03-11T09:48:53;7.20;99.90
16136;DHT22;8173;48.354;9.248;2023-03-11T09:51:27;5.60;99.90
16136;DHT22;8173;48.354;9.248;2023-03-11T09:54:00;4.30;99.90
16136;DHT22;8173;48.354;9.248;2023-03-11T09:56:28;2.90;99.90
16136;DHT22;8173;48.354;9.248;2023-03-11T09:59:00;2.00;99.90
16136;DHT22;8173;48.354;9.248;2023-03-11T10:01:29;3.20;99.90
16136;DHT22;8173;48.354;9.248;2023-03-11T10:04:02;3.20;99.90
16136;DHT22;8173;48.354;9.248;2023-03-11T10:06:31;4.70;99.90
16136;DHT22;8173;48.354;9.248;2023-03-11T10:09:01;6.00;99.90
16136;DHT22;8173;48.354;9.248;2023-03-11T10:11:54;6.90;99.90
16136;DHT22;8173;48.354;9.248;2023-03-11T10:14:47;7.30;99.90
16136;DHT22;8173;48.354;9.248;2023-03-11T10:17:33;7.10;99.90
16136;DHT22;8173;48.354;9.248;2023-03-11T10:20:05;5.90;99.90
16136;DHT22;8173;48.354;9.248;2023-03-11T10:22:40;4.90;99.90
16136;DHT22;8173;48.354;9.248;2023-03-11T10:25:10;5.30;99.90
16136;DHT22;8173;48.354;9.248;2023-03-11T10:27:44;6.60;99.90
16136;DHT22;8173;48.354;9.248;2023-03-11T10:30:20;5.30;99.90
16136;DHT22;8173;48.354;9.248;2023-03-11T10:32:53;4.70;99.90
16136;DHT22;8173;48.354;9.248;2023-03-11T10:35:23;5.60;99.90
16136;DHT22;8173;48.354;9.248;2023-03-11T10:37:57;6.40;99.90
16136;DHT22;8173;48.354;9.248;2023-03-11T10:40:28;6.60;99.90
16136;DHT22;8173;48.354;9.248;2023-03-11T10:42:58;6.80;99.90
16136;DHT22;8173;48.354;9.248;2023-03-11T10:45:28;6.90;99.90
16136;DHT22;8173;48.354;9.248;2023-03-11T10:47:57;6.80;99.90
16136;DHT22;8173;48.354;9.248;2023-03-11T10:50:23;7.00;99.90
16136;DHT22;8173;48.354;9.248;2023-03-11T10:53:07;6.70;99.90
16136;DHT22;8173;48.354;9.248;2023-03-11T10:55:34;7.00;99.90
16136;DHT22;8173;48.354;9.248;2023-03-11T10:58:13;6.70;99.90
16136;DHT22;8173;48.354;9.248;2023-03-11T11:00:40;6.20;99.90
16136;DHT22;8173;48.354;9.248;2023-03-11T11:03:19;6.20;99.90
16136;DHT22;8173;48.354;9.248;2023-03-11T11:05:57;6.10;99.90
16136;DHT22;8173;48.354;9.248;2023-03-11T11:08:26;6.00;99.90
16136;DHT22;8173;48.354;9.248;2023-03-11T11:10:54;5.90;99.90
16136;DHT22;8173;48.354;9.248;2023-03-11T11:13:23;6.50;99.90
16136;DHT22;8173;48.354;9.248;2023-03-11T11:15:53;7.80;99.90
16136;DHT22;8173;48.354;9.248;2023-03-11T11:18:22;7.50;99.90
16136;DHT22;8173;48.354;9.248;2023-03-11T11:20:55;7.20;99.90
16136;DHT22;8173;48.354;9.248;2023-03-11T11:23:32;7.40;99.90
16136;DHT22;8173;48.354;9.248;2023-03-11T11:26:01;7.40;99.90
16136;DHT22;8173;48.354;9.248;2023-03-11T11:28:30;7.60;99.90
16136;DHT22;8173;48.354;9.248;2023-03-11T11:30:58;8.80;99.90
16136;DHT22;8173;48.354;9.248;2023-03-11T11:33:28;7.80;99.90
16136;DHT22;8173;48.354;9.248;2023-03-11T11:35:57;7.40;99.90
16136;DHT22;8173;48.354;9.248;2023-03-11T11:38:27;7.10;99.90
16136;DHT22;8173;48.354;9.248;2023-03-11T11:40:56;6.90;99.90
16136;DHT22;8173;48.354;9.248;2023-03-11T11:43:38;7.30;99.90
16136;DHT22;8173;48.354;9.248;2023-03-11T11:46:15;6.60;99.90
16136;DHT22;8173;48.354;9.248;2023-03-11T11:48:49;6.00;99.90
16136;DHT22;8173;48.354;9.248;2023-03-11T11:51:20;5.30;99.90
16136;DHT22;8173;48.354;9.248;2023-03-11T11:53:54;5.40;99.90
16136;DHT22;8173;48.354;9.248;2023-03-11T11:56:23;5.90;99.90
16136;DHT22;8173;48.354;9.248;2023-03-11T11:58:50;6.10;99.90
16136;DHT22;8173;48.354;9.248;2023-03-11T12:01:26;6.00;99.90
16136;DHT22;8173;48.354;9.248;2023-03-11T12:04:10;5.70;99.90
16136;DHT22;8173;48.354;9.248;2023-03-11T12:06:48;5.70;99.90
16136;DHT22;8173;48.354;9.248;2023-03-11T12:09:22;6.10;99.90
16136;DHT22;8173;48.354;9.248;2023-03-11T12:11:58;6.10;99.90
16136;DHT22;8173;48.354;9.248;2023-03-11T12:14:31;6.00;99.90
16136;DHT22;8173;48.354;9.248;2023-03-11T12:17:01;6.30;99.90
16136;DHT22;8173;48.354;9.248;2023-03-11T12:19:33;7.30;99.90
16136;DHT22;8173;48.354;9.248;2023-03-11T12:22:26;7.60;99.90
16136;DHT22;8173;48.354;9.248;2023-03-11T12:25:12;7.40;99.90
16136;DHT22;8173;48.354;9.248;2023-03-11T12:27:48;7.60;99.90
16136;DHT22;8173;48.354;9.248;2023-03-11T12:30:19;7.00;99.90
16136;DHT22;8173;48.354;9.248;2023-03-11T12:32:49;7.20;99.90
16136;DHT22;8173;48.354;9.248;2023-03-11T12:35:20;6.50;99.90
16136;DHT22;8173;48.354;9.248;2023-03-11T12:37:55;6.50;99.90
16136;DHT22;8173;48.354;9.248;2023-03-11T12:40:58;6.70;99.90
16136;DHT22;8173;48.354;9.248;2023-03-11T12:43:55;6.90;99.90
16136;DHT22;8173;48.354;9.248;2023-03-11T12:46:20;7.00;99.90
16136;DHT22;8173;48.354;9.248;2023-03-11T12:48:49;7.10;99.20
16136;DHT22;8173;48.354;9.248;2023-03-11T12:51:45;7.60;99.90
16136;DHT22;8173;48.354;9.248;2023-03-11T12:54:30;8.20;99.90
16136;DHT22;8173;48.354;9.248;2023-03-11T12:56:59;7.90;99.30
16136;DHT22;8173;48.354;9.248;2023-03-11T13:00:00;7.40;99.10
16136;DHT22;8173;48.354;9.248;2023-03-11T13:05:30;7.30;99.60
16136;DHT22;8173;48.354;9.248;2023-03-11T13:08:08;6.80;97.40
16136;DHT22;8173;48.354;9.248;2023-03-11T13:10:39;6.90;98.60
16136;DHT22;8173;48.354;9.248;2023-03-11T13:13:30;6.70;99.90
16136;DHT22;8173;48.354;9.248;2023-03-11T13:16:36;6.80;99.40
16136;DHT22;8173;48.354;9.248;2023-03-11T13:19:36;6.20;99.90
16136;DHT22;8173;48.354;9.248;2023-03-11T13:22:04;5.70;99.00
16136;DHT22;8173;48.354;9.248;2023-03-11T13:24:49;5.90;99.90
16136;DHT22;8173;48.354;9.248;2023-03-11T13:27:37;6.60;99.60
16136;DHT22;8173;48.354;9.248;2023-03-11T13:30:15;6.50;99.90
16136;DHT22;8173;48.354;9.248;2023-03-11T13:33:04;6.90;99.60
16136;DHT22;8173;48.354;9.248;2023-03-11T13:35:51;7.40;99.90
16136;DHT22;8173;48.354;9.248;2023-03-11T13:38:35;7.80;98.80
16136;DHT22;8173;48.354;9.248;2023-03-11T13:41:13;7.70;97.10
16136;DHT22;8173;48.354;9.248;2023-03-11T13:43:44;7.50;96.50
16136;DHT22;8173;48.354;9.248;2023-03-11T13:46:22;7.00;95.90
16136;DHT22;8173;48.354;9.248;2023-03-11T13:48:59;6.30;95.70
16136;DHT22;8173;48.354;9.248;2023-03-11T13:51:34;6.00;96.80
16136;DHT22;8173;48.354;9.248;2023-03-11T13:54:04;6.20;96.80
16136;DHT22;8173;48.354;9.248;2023-03-11T13:56:42;6.80;97.30
16136;DHT22;8173;48.354;9.248;2023-03-11T13:59:14;6.70;98.30
16136;DHT22;8173;48.354;9.248;2023-03-11T14:01:49;6.60;96.10
16136;DHT22;8173;48.354;9.248;2023-03-11T14:04:19;6.60;96.20
16136;DHT22;8173;48.354;9.248;2023-03-11T14:06:50;6.90;96.40
16136;DHT22;8173;48.354;9.248;2023-03-11T14:09:23;7.20;96.60
16136;DHT22;8173;48.354;9.248;2023-03-11T14:11:52;6.90;94.50
16136;DHT22;8173;48.354;9.248;2023-03-11T14:14:31;6.80;94.90
16136;DHT22;8173;48.354;9.248;2023-03-11T14:17:02;6.10;94.60
16136;DHT22;8173;48.354;9.248;2023-03-11T14:19:30;5.80;96.20
16136;DHT22;8173;48.354;9.248;2023-03-11T14:21:56;6.40;95.30
16136;DHT22;8173;48.354;9.248;2023-03-11T14:24:26;6.10;93.50
16136;DHT22;8173;48.354;9.248;2023-03-11T14:26:55;6.00;94.50
16136;DHT22;8173;48.354;9.248;2023-03-11T14:29:29;6.40;94.80
16136;DHT22;8173;48.354;9.248;2023-03-11T14:31:56;6.90;95.60
16136;DHT22;8173;48.354;9.248;2023-03-11T14:34:25;6.90;94.10
16136;DHT22;8173;48.354;9.248;2023-03-11T14:36:54;6.90;94.60
16136;DHT22;8173;48.354;9.248;2023-03-11T14:39:23;6.70;92.20
16136;DHT22;8173;48.354;9.248;2023-03-11T14:41:52;6.40;93.00
16136;DHT22;8173;48.354;9.248;2023-03-11T14:44:20;6.50;93.10
16136;DHT22;8173;48.354;9.248;2023-03-11T14:46:48;6.70;92.90
16136;DHT22;8173;48.354;9.248;2023-03-11T14:49:19;6.60;93.40
16136;DHT22;8173;48.354;9.248;2023-03-11T14:51:53;6.50;92.50
16136;DHT22;8173;48.354;9.248;2023-03-11T14:54:23;6.30;92.00
16136;DHT22;8173;48.354;9.248;2023-03-11T14:56:57;6.00;91.80
16136;DHT22;8173;48.354;9.248;2023-03-11T14:59:27;5.70;93.20
16136;DHT22;8173;48.354;9.248;2023-03-11T15:02:11;5.40;92.90
16136;DHT22;8173;48.354;9.248;2023-03-11T15:04:45;5.10;93.70
16136;DHT22;8173;48.354;9.248;2023-03-11T15:07:13;4.70;94.40
16136;DHT22;8173;48.354;9.248;2023-03-11T15:09:41;4.70;95.70
16136;DHT22;8173;48.354;9.248;2023-03-11T15:12:29;4.40;95.60
16136;DHT22;8173;48.354;9.248;2023-03-11T15:14:56;4.50;96.60
16136;DHT22;8173;48.354;9.248;2023-03-11T15:17:25;4.60;96.60
16136;DHT22;8173;48.354;9.248;2023-03-11T15:19:52;4.60;96.80
16136;DHT22;8173;48.354;9.248;2023-03-11T15:22:24;4.60;97.10
16136;DHT22;8173;48.354;9.248;2023-03-11T15:24:53;4.40;95.10
16136;DHT22;8173;48.354;9.248;2023-03-11T15:27:27;4.40;95.50
16136;DHT22;8173;48.354;9.248;2023-03-11T15:29:54;4.20;97.70
16136;DHT22;8173;48.354;9.248;2023-03-11T15:32:38;4.10;98.50
16136;DHT22;8173;48.354;9.248;2023-03-11T15:35:14;4.00;99.10
16136;DHT22;8173;48.354;9.248;2023-03-11T15:37:43;3.90;99.90
16136;DHT22;8173;48.354;9.248;2023-03-11T15:40:16;3.70;99.50
16136;DHT22;8173;48.354;9.248;2023-03-11T15:42:44;3.60;99.90
16136;DHT22;8173;48.354;9.248;2023-03-11T15:45:14;3.50;99.80
16136;DHT22;8173;48.354;9.248;2023-03-11T15:47:41;3.50;99.90
16136;DHT22;8173;48.354;9.248;2023-03-11T15:50:20;3.50;99.90
16136;DHT22;8173;48.354;9.248;2023-03-11T15:52:50;3.60;99.90
16136;DHT22;8173;48.354;9.248;2023-03-11T15:55:17;3.60;99.90
16136;DHT22;8173;48.354;9.248;2023-03-11T15:57:45;3.50;99.90
16136;DHT22;8173;48.354;9.248;2023-03-11T16:00:17;3.40;99.90
16136;DHT22;8173;48.354;9.248;2023-03-11T16:05:15;3.20;99.90
16136;DHT22;8173;48.354;9.248;2023-03-11T16:07:41;3.10;99.90
16136;DHT22;8173;48.354;9.248;2023-03-11T16:10:12;3.00;99.90
16136;DHT22;8173;48.354;9.248;2023-03-11T16:12:39;3.00;99.90
16136;DHT22;8173;48.354;9.248;2023-03-11T16:15:19;3.00;99.90
16136;DHT22;8173;48.354;9.248;2023-03-11T16:17:49;2.90;99.90
16136;DHT22;8173;48.354;9.248;2023-03-11T16:20:16;2.80;99.90
16136;DHT22;8173;48.354;9.248;2023-03-11T16:22:43;2.80;99.90
16136;DHT22;8173;48.354;9.248;2023-03-11T16:25:18;2.80;99.90
16136;DHT22;8173;48.354;9.248;2023-03-11T16:27:46;2.80;99.90
16136;DHT22;8173;48.354;9.248;2023-03-11T16:30:13;2.70;99.90